Time;durP1;ratioP1;P1;durP2;ratioP2;P2;SDS_P1;SDS_P2;PMS_P1;PMS_P2;Temp;Humidity;BMP_temperature;BMP_pressure;BME280_temperature;BME280_humidity;BME280_pressure;Samples;Min_cycle;Max_cycle;Signal;HPM_P1;HPM_P2
2021/07/10 00:02:27;;;;;;;22.37;15.57;;;18.10;99.90;;;;;;5313601;27;20237;-62
2021/07/10 00:05:00;;;;;;;24.90;17.23;;;18.10;99.90;;;;;;5312467;27;20206;-64
2021/07/10 00:07:33;;;;;;;24.57;16.17;;;18.20;99.90;;;;;;5313586;27;20256;-67
2021/07/10 00:10:07;;;;;;;24.87;17.57;;;18.20;99.90;;;;;;5311829;27;20543;-67
2021/07/10 00:12:40;;;;;;;22.63;16.53;;;18.20;99.90;;;;;;5311896;27;20237;-67
2021/07/10 00:15:17;;;;;;;21.27;16.23;;;18.20;99.90;;;;;;5313526;27;20198;-65
2021/07/10 00:17:50;;;;;;;25.07;16.37;;;18.20;99.90;;;;;;5313089;27;20242;-64
2021/07/10 00:20:23;;;;;;;26.43;19.30;;;18.30;99.90;;;;;;5311463;27;20205;-69
2021/07/10 00:22:55;;;;;;;27.42;17.63;;;18.30;99.90;;;;;;5312955;27;20269;-63
2021/07/10 00:25:27;;;;;;;22.58;16.52;;;18.30;99.90;;;;;;5346171;27;20217;-66
2021/07/10 00:27:59;;;;;;;22.90;16.10;;;18.30;99.90;;;;;;5312880;27;20231;-64
2021/07/10 00:30:32;;;;;;;22.83;15.63;;;18.30;99.90;;;;;;5312815;27;20226;-66
2021/07/10 00:33:06;;;;;;;22.33;15.73;;;18.30;99.90;;;;;;5311464;27;20239;-64
2021/07/10 00:35:39;;;;;;;25.07;16.57;;;18.40;99.90;;;;;;5295248;27;20206;-66
2021/07/10 00:38:13;;;;;;;25.55;17.67;;;18.40;99.90;;;;;;5312586;27;20369;-65
2021/07/10 00:40:46;;;;;;;26.55;16.25;;;18.40;99.90;;;;;;5312749;27;20195;-65
2021/07/10 00:43:18;;;;;;;24.77;17.90;;;18.40;99.90;;;;;;5311947;27;20310;-67
2021/07/10 00:45:50;;;;;;;22.87;17.60;;;18.40;99.90;;;;;;5312589;27;20202;-66
2021/07/10 00:48:25;;;;;;;21.58;16.70;;;18.40;99.90;;;;;;5312536;27;20233;-67
2021/07/10 00:50:57;;;;;;;22.00;15.83;;;18.40;99.90;;;;;;5312598;27;20206;-68
2021/07/10 00:53:29;;;;;;;23.90;16.63;;;18.40;99.90;;;;;;5311765;27;20329;-66
2021/07/10 00:56:02;;;;;;;20.40;15.97;;;18.40;99.90;;;;;;5312325;27;20210;-66
2021/07/10 00:58:37;;;;;;;25.73;17.37;;;18.50;99.90;;;;;;5294934;27;20238;-66
2021/07/10 01:01:09;;;;;;;23.70;16.98;;;18.50;99.90;;;;;;5311395;27;20199;-68
2021/07/10 01:03:45;;;;;;;20.00;15.57;;;18.50;99.90;;;;;;5311251;28;20222;-64
2021/07/10 01:06:17;;;;;;;23.60;16.08;;;18.50;99.90;;;;;;5313132;27;20186;-65
2021/07/10 01:08:49;;;;;;;21.33;17.33;;;18.50;99.90;;;;;;5312588;27;20567;-68
2021/07/10 01:11:22;;;;;;;24.17;17.47;;;18.50;99.90;;;;;;5312199;27;20246;-66
2021/07/10 01:13:54;;;;;;;22.00;17.02;;;18.50;99.90;;;;;;5312679;27;20273;-67
2021/07/10 01:16:27;;;;;;;21.40;16.35;;;18.50;99.90;;;;;;5311480;28;20209;-69
2021/07/10 01:18:59;;;;;;;21.87;16.77;;;18.50;99.90;;;;;;5312578;27;20254;-62
2021/07/10 01:21:31;;;;;;;22.70;16.50;;;18.50;99.90;;;;;;5312389;27;20199;-65
2021/07/10 01:24:04;;;;;;;23.80;16.00;;;18.50;99.90;;;;;;5312433;27;20223;-66
2021/07/10 01:26:36;;;;;;;22.80;17.33;;;18.50;99.90;;;;;;5311204;28;20202;-64
2021/07/10 01:29:07;;;;;;;25.42;17.92;;;18.50;99.90;;;;;;5312547;27;20245;-65
2021/07/10 01:31:40;;;;;;;23.33;16.93;;;18.50;99.90;;;;;;5313616;27;20560;-63
2021/07/10 01:34:14;;;;;;;24.43;17.87;;;18.50;99.90;;;;;;5315367;27;20542;-64
2021/07/10 01:36:49;;;;;;;24.13;17.37;;;18.50;99.90;;;;;;5315330;27;20214;-65
2021/07/10 01:39:21;;;;;;;28.15;17.40;;;18.50;99.90;;;;;;5316216;27;20223;-64
2021/07/10 01:41:54;;;;;;;23.90;18.17;;;18.50;99.90;;;;;;5316525;27;20202;-65
2021/07/10 01:44:26;;;;;;;23.90;17.20;;;18.50;99.90;;;;;;5316524;27;20661;-65
2021/07/10 01:46:58;;;;;;;24.80;18.63;;;18.50;99.90;;;;;;5298303;27;20203;-66
2021/07/10 01:49:30;;;;;;;26.37;19.07;;;18.50;99.90;;;;;;5315836;27;20233;-63
2021/07/10 01:52:04;;;;;;;24.67;19.80;;;18.50;99.90;;;;;;5315810;27;20214;-66
2021/07/10 01:54:36;;;;;;;22.55;17.67;;;18.50;99.90;;;;;;5281218;27;20226;-67
2021/07/10 01:57:09;;;;;;;30.53;21.83;;;18.50;99.90;;;;;;5316021;27;20211;-62
2021/07/10 01:59:42;;;;;;;29.88;21.02;;;18.50;99.90;;;;;;5315954;27;20597;-65
2021/07/10 02:02:14;;;;;;;30.77;22.70;;;18.50;99.90;;;;;;5315722;27;20210;-64
2021/07/10 02:04:48;;;;;;;29.35;21.52;;;18.50;99.90;;;;;;5297637;27;20319;-65
2021/07/10 02:07:20;;;;;;;33.43;23.07;;;18.50;99.90;;;;;;5315664;27;20198;-63
2021/07/10 02:09:53;;;;;;;34.00;23.10;;;18.50;99.90;;;;;;5297855;27;20235;-67
2021/07/10 02:12:27;;;;;;;33.85;23.42;;;18.50;99.90;;;;;;5315574;27;20226;-64
2021/07/10 02:14:59;;;;;;;33.27;22.43;;;18.50;99.90;;;;;;5315462;27;20218;-64
2021/07/10 02:17:31;;;;;;;41.15;25.75;;;18.50;99.90;;;;;;5315413;27;20206;-66
2021/07/10 02:20:07;;;;;;;33.30;23.92;;;18.50;99.90;;;;;;5315725;27;20505;-64
2021/07/10 02:22:40;;;;;;;36.10;25.63;;;18.50;99.90;;;;;;5315763;27;20216;-64
2021/07/10 02:25:16;;;;;;;38.15;25.90;;;18.50;99.90;;;;;;5315401;27;20231;-67
2021/07/10 02:27:50;;;;;;;33.33;23.23;;;18.50;99.90;;;;;;5314161;27;20276;-63
2021/07/10 02:30:29;;;;;;;33.75;23.95;;;18.50;99.90;;;;;;5315214;27;20249;-64
2021/07/10 02:33:04;;;;;;;33.20;22.47;;;18.50;99.90;;;;;;5315188;27;20232;-64
2021/07/10 02:35:39;;;;;;;35.60;25.03;;;18.50;99.90;;;;;;5315420;27;20237;-68
2021/07/10 02:38:12;;;;;;;41.33;26.23;;;18.50;99.90;;;;;;5314166;27;20613;-65
2021/07/10 02:40:44;;;;;;;38.20;26.55;;;18.50;99.90;;;;;;5314873;27;20223;-64
2021/07/10 02:43:17;;;;;;;38.70;24.70;;;18.50;99.90;;;;;;5314441;27;20203;-65
2021/07/10 02:45:48;;;;;;;40.22;27.67;;;18.50;99.90;;;;;;5315154;27;20226;-66
2021/07/10 02:48:21;;;;;;;34.72;23.65;;;18.50;99.90;;;;;;5315146;27;20213;-69
2021/07/10 02:50:52;;;;;;;34.17;25.40;;;18.50;99.90;;;;;;5331337;27;20602;-66
2021/07/10 02:53:27;;;;;;;40.28;26.52;;;18.50;99.90;;;;;;5315008;27;20274;-66
2021/07/10 02:55:58;;;;;;;40.17;28.43;;;18.50;99.90;;;;;;5314884;27;20226;-63
2021/07/10 02:58:33;;;;;;;36.80;25.38;;;18.50;99.90;;;;;;5313827;27;20195;-67
2021/07/10 03:01:05;;;;;;;36.80;24.80;;;18.50;99.90;;;;;;5314664;27;20230;-66
2021/07/10 03:03:37;;;;;;;38.05;27.05;;;18.60;99.90;;;;;;5313476;27;20256;-64
2021/07/10 03:06:09;;;;;;;38.40;27.00;;;18.60;99.90;;;;;;5313376;27;20675;-66
2021/07/10 03:08:42;;;;;;;35.97;26.45;;;18.60;99.90;;;;;;5315121;27;20523;-68
2021/07/10 03:11:15;;;;;;;35.05;25.60;;;18.60;99.90;;;;;;5314153;27;20257;-66
2021/07/10 03:13:47;;;;;;;37.70;26.83;;;18.60;99.90;;;;;;5313041;27;20244;-66
2021/07/10 03:16:21;;;;;;;39.40;26.90;;;18.60;99.90;;;;;;5313974;27;20231;-66
2021/07/10 03:18:56;;;;;;;43.30;28.30;;;18.60;99.90;;;;;;5314905;27;20245;-68
2021/07/10 03:21:28;;;;;;;39.60;24.95;;;18.60;99.90;;;;;;5314329;27;20222;-62
2021/07/10 03:24:00;;;;;;;40.63;27.13;;;18.60;99.90;;;;;;5296515;27;20214;-64
2021/07/10 03:26:32;;;;;;;39.40;28.70;;;18.60;99.90;;;;;;5347515;27;20226;-65
2021/07/10 03:29:09;;;;;;;42.87;29.83;;;18.60;99.90;;;;;;5312828;27;20217;-65
2021/07/10 03:31:43;;;;;;;44.03;29.07;;;18.70;99.90;;;;;;5314233;27;20237;-64
2021/07/10 03:34:16;;;;;;;39.70;27.77;;;18.60;99.90;;;;;;5313249;27;20198;-65
2021/07/10 03:36:48;;;;;;;47.22;29.27;;;18.70;99.90;;;;;;5313878;27;20233;-66
2021/07/10 03:39:21;;;;;;;47.45;30.15;;;18.70;99.90;;;;;;5314055;27;20209;-64
2021/07/10 03:41:53;;;;;;;49.43;31.63;;;18.70;99.90;;;;;;5312688;27;20199;-67
2021/07/10 03:44:26;;;;;;;45.60;29.63;;;18.70;99.90;;;;;;5313209;27;20213;-67
2021/07/10 03:46:58;;;;;;;47.38;29.55;;;18.70;99.90;;;;;;5313963;27;20238;-65
2021/07/10 03:49:33;;;;;;;45.60;30.05;;;18.70;99.90;;;;;;5313773;27;20577;-66
2021/07/10 03:52:05;;;;;;;43.90;28.80;;;18.70;99.90;;;;;;5313835;27;20233;-68
2021/07/10 03:54:37;;;;;;;40.30;26.57;;;18.70;99.90;;;;;;5311581;27;20206;-63
2021/07/10 03:57:10;;;;;;;39.00;26.77;;;18.70;99.90;;;;;;5313474;27;20227;-63
2021/07/10 03:59:42;;;;;;;36.23;24.53;;;18.70;99.90;;;;;;5313628;27;20203;-66
2021/07/10 04:02:14;;;;;;;29.73;22.30;;;18.70;99.90;;;;;;5312722;27;20556;-66
2021/07/10 04:04:48;;;;;;;28.57;20.50;;;18.80;99.90;;;;;;5312500;27;20312;-64
2021/07/10 04:07:20;;;;;;;26.98;21.17;;;18.80;99.90;;;;;;5313026;27;20230;-65
2021/07/10 04:09:52;;;;;;;30.30;19.58;;;18.80;99.90;;;;;;5313156;27;20242;-64
2021/07/10 04:12:24;;;;;;;27.55;18.88;;;18.90;99.90;;;;;;5295477;27;20231;-63
2021/07/10 04:15:00;;;;;;;28.85;19.30;;;18.90;99.90;;;;;;5313209;27;20199;-66
2021/07/10 04:17:32;;;;;;;23.30;16.85;;;19.00;99.90;;;;;;5313037;27;20233;-63
2021/07/10 04:20:06;;;;;;;25.30;17.52;;;19.00;99.90;;;;;;5295190;27;20210;-62
2021/07/10 04:22:39;;;;;;;24.00;16.83;;;19.00;99.90;;;;;;5313228;27;20819;-63
2021/07/10 04:25:15;;;;;;;28.65;17.15;;;19.10;99.90;;;;;;5313260;27;20611;-65
2021/07/10 04:27:47;;;;;;;23.02;17.83;;;19.00;99.90;;;;;;5313298;27;20241;-67
2021/07/10 04:30:20;;;;;;;26.65;17.55;;;19.10;99.90;;;;;;5313278;27;20206;-64
2021/07/10 04:32:52;;;;;;;23.38;16.50;;;19.00;99.90;;;;;;5313347;27;20242;-63
2021/07/10 04:35:24;;;;;;;26.05;17.02;;;19.00;99.90;;;;;;5312116;27;20245;-66
2021/07/10 04:37:56;;;;;;;24.58;17.85;;;19.00;99.90;;;;;;5313065;27;20222;-64
2021/07/10 04:40:28;;;;;;;25.15;18.30;;;18.90;99.90;;;;;;5313020;27;20198;-64
2021/07/10 04:43:04;;;;;;;24.52;16.73;;;18.90;99.90;;;;;;5313129;27;20227;-64
2021/07/10 04:45:37;;;;;;;22.30;15.30;;;18.90;99.90;;;;;;5313294;27;20213;-68
2021/07/10 04:48:09;;;;;;;19.38;14.18;;;19.00;99.90;;;;;;5312525;27;20541;-69
2021/07/10 04:50:41;;;;;;;18.42;12.93;;;19.00;99.90;;;;;;5312786;27;20500;-65
2021/07/10 04:53:13;;;;;;;19.35;13.95;;;19.10;99.90;;;;;;5346327;27;20230;-66
2021/07/10 04:55:45;;;;;;;16.88;12.65;;;19.20;99.90;;;;;;5311819;27;20205;-66
2021/07/10 04:58:18;;;;;;;19.42;13.50;;;19.20;99.90;;;;;;5313504;27;20227;-65
2021/07/10 05:00:50;;;;;;;18.90;14.18;;;19.20;99.90;;;;;;5311930;27;20325;-69
2021/07/10 05:03:25;;;;;;;20.88;13.80;;;19.30;99.90;;;;;;5312011;27;20238;-63
2021/07/10 05:05:57;;;;;;;17.23;12.95;;;19.30;99.90;;;;;;5311636;27;20198;-65
2021/07/10 05:08:32;;;;;;;21.10;12.77;;;19.40;99.90;;;;;;5312590;27;20230;-62
2021/07/10 05:11:06;;;;;;;17.17;13.20;;;19.40;99.90;;;;;;5312519;27;20238;-65
2021/07/10 05:13:38;;;;;;;18.13;12.18;;;19.50;99.90;;;;;;5312359;27;20234;-63
2021/07/10 05:16:10;;;;;;;14.50;10.93;;;19.60;99.90;;;;;;5312560;28;20207;-65
2021/07/10 05:18:42;;;;;;;14.63;11.43;;;19.60;99.90;;;;;;5294503;28;20218;-67
2021/07/10 05:21:14;;;;;;;13.75;10.60;;;19.70;99.90;;;;;;5306615;28;20633;-64
2021/07/10 05:23:48;;;;;;;14.93;9.88;;;19.80;99.90;;;;;;5291761;28;20284;-67
2021/07/10 05:26:20;;;;;;;11.82;9.23;;;19.80;99.90;;;;;;5291169;27;20207;-65
2021/07/10 05:28:55;;;;;;;13.68;9.50;;;19.90;99.90;;;;;;5289890;28;20231;-65
2021/07/10 05:31:27;;;;;;;14.48;8.48;;;19.90;99.90;;;;;;5291086;28;20207;-63
2021/07/10 05:33:59;;;;;;;9.98;8.43;;;19.90;99.90;;;;;;5290830;28;20235;-67
2021/07/10 05:36:31;;;;;;;11.07;8.88;;;19.90;99.90;;;;;;5290159;28;20192;-64
2021/07/10 05:39:03;;;;;;;9.77;8.52;;;19.90;99.90;;;;;;5291166;28;20227;-65
2021/07/10 05:41:36;;;;;;;10.07;7.72;;;19.80;99.90;;;;;;5291004;28;20203;-65
2021/07/10 05:44:10;;;;;;;11.32;8.52;;;19.90;99.90;;;;;;5290959;28;20238;-67
2021/07/10 05:46:42;;;;;;;15.32;8.70;;;19.90;99.90;;;;;;5290036;28;20191;-67
2021/07/10 05:49:14;;;;;;;12.48;9.27;;;20.00;99.90;;;;;;5290852;28;20526;-66
2021/07/10 05:51:46;;;;;;;13.63;9.15;;;19.90;99.90;;;;;;5290952;28;20204;-67
2021/07/10 05:54:18;;;;;;;10.60;9.18;;;19.90;99.90;;;;;;5290790;28;20246;-64
2021/07/10 05:56:50;;;;;;;12.13;10.07;;;19.90;99.90;;;;;;5290717;27;20203;-65
2021/07/10 05:59:22;;;;;;;11.23;9.82;;;20.00;99.90;;;;;;5289699;28;20519;-66
2021/07/10 06:01:54;;;;;;;16.05;10.75;;;20.10;99.90;;;;;;5290039;28;20621;-63
2021/07/10 06:04:26;;;;;;;13.98;10.00;;;20.30;99.90;;;;;;5290575;28;20341;-65
2021/07/10 06:06:59;;;;;;;13.85;9.90;;;20.60;99.90;;;;;;5272343;28;20293;-63
2021/07/10 06:09:36;;;;;;;10.85;9.43;;;21.00;99.90;;;;;;5289164;28;20227;-67
2021/07/10 06:12:10;;;;;;;12.60;9.52;;;21.30;99.90;;;;;;5290244;27;20219;-68
2021/07/10 06:14:42;;;;;;;14.15;9.52;;;21.60;99.90;;;;;;5272489;28;20242;-67
2021/07/10 06:17:14;;;;;;;10.48;9.07;;;21.60;99.90;;;;;;5291254;28;20527;-67
2021/07/10 06:19:46;;;;;;;9.05;8.15;;;21.90;99.90;;;;;;5276136;28;20266;-66
2021/07/10 06:22:18;;;;;;;9.13;7.68;;;22.90;99.90;;;;;;5294687;28;20533;-63
2021/07/10 06:24:50;;;;;;;9.13;6.40;;;24.50;99.90;;;;;;5293272;28;20726;-65
2021/07/10 06:27:24;;;;;;;6.97;5.63;;;26.20;99.90;;;;;;5293962;28;20514;-65
2021/07/10 06:29:59;;;;;;;8.15;5.65;;;26.90;99.90;;;;;;5292939;28;20300;-65
2021/07/10 06:32:34;;;;;;;7.10;4.90;;;27.00;99.90;;;;;;5294076;28;20290;-70
2021/07/10 06:35:07;;;;;;;6.40;4.78;;;26.40;99.90;;;;;;5276755;28;20223;-64
2021/07/10 06:37:40;;;;;;;6.65;5.47;;;25.80;99.90;;;;;;5294270;28;20518;-63
2021/07/10 06:40:14;;;;;;;11.43;6.38;;;25.00;99.90;;;;;;5293961;28;20270;-64
2021/07/10 06:42:47;;;;;;;5.78;5.13;;;24.40;99.90;;;;;;5294299;28;20486;-66
2021/07/10 06:45:22;;;;;;;6.35;4.85;;;24.20;99.90;;;;;;5293749;28;20539;-62
2021/07/10 06:47:55;;;;;;;6.03;5.10;;;24.00;99.90;;;;;;5292801;28;20187;-65
2021/07/10 06:50:27;;;;;;;6.78;6.03;;;24.00;99.90;;;;;;5293949;28;20243;-65
2021/07/10 06:52:59;;;;;;;7.07;5.95;;;23.80;99.90;;;;;;5293467;28;20317;-65
2021/07/10 06:55:31;;;;;;;10.15;6.00;;;23.60;99.90;;;;;;5293346;28;20224;-63
2021/07/10 06:58:03;;;;;;;7.88;6.18;;;23.10;99.90;;;;;;5292588;28;20195;-66
2021/07/10 07:00:35;;;;;;;5.95;5.35;;;22.80;99.90;;;;;;5292732;28;20551;-67
2021/07/10 07:03:07;;;;;;;7.57;6.28;;;23.00;99.90;;;;;;5292875;28;20501;-67
2021/07/10 07:05:42;;;;;;;11.82;5.95;;;23.90;99.90;;;;;;5292420;28;20227;-66
2021/07/10 07:08:14;;;;;;;6.07;5.43;;;25.20;99.90;;;;;;5293151;27;20215;-65
2021/07/10 07:10:46;;;;;;;7.93;5.18;;;25.90;99.90;;;;;;5293356;28;20247;-65
2021/07/10 07:13:18;;;;;;;10.55;5.68;;;26.10;99.90;;;;;;5293003;28;20298;-69
2021/07/10 07:15:50;;;;;;;6.28;5.53;;;25.90;99.90;;;;;;5292196;28;20203;-64
2021/07/10 07:18:22;;;;;;;7.72;5.10;;;25.30;99.90;;;;;;5293018;28;20180;-66
2021/07/10 07:21:10;;;;;;;5.40;4.82;;;24.50;99.90;;;;;;5293182;28;20641;-65
2021/07/10 07:23:43;;;;;;;6.15;4.85;;;24.10;99.90;;;;;;5292832;28;20549;-64
2021/07/10 07:26:18;;;;;;;5.38;4.88;;;23.60;99.90;;;;;;5291972;28;20532;-64
2021/07/10 07:28:50;;;;;;;5.88;4.82;;;23.30;99.90;;;;;;5293485;28;20188;-63
2021/07/10 07:31:22;;;;;;;6.38;5.28;;;23.70;99.90;;;;;;5292759;28;20228;-64
2021/07/10 07:33:55;;;;;;;5.30;4.80;;;23.90;99.90;;;;;;5291677;28;20219;-63
2021/07/10 07:36:27;;;;;;;8.07;5.00;;;24.30;99.90;;;;;;5275249;28;20242;-67
2021/07/10 07:39:01;;;;;;;5.78;4.43;;;24.80;99.90;;;;;;5292568;28;20184;-67
2021/07/10 07:41:37;;;;;;;7.50;4.72;;;25.20;99.90;;;;;;5291742;28;20292;-64
2021/07/10 07:44:11;;;;;;;6.30;4.63;;;25.50;99.90;;;;;;5292181;28;20263;-65
2021/07/10 07:46:43;;;;;;;6.47;4.53;;;25.60;99.90;;;;;;5291784;28;20225;-66
2021/07/10 07:49:17;;;;;;;6.03;4.07;;;25.60;99.90;;;;;;5292840;28;20226;-66
2021/07/10 07:51:50;;;;;;;3.90;3.60;;;25.60;99.90;;;;;;5291330;28;20227;-63
2021/07/10 07:54:25;;;;;;;4.45;3.00;;;25.60;99.90;;;;;;5291647;28;20542;-64
2021/07/10 07:56:57;;;;;;;6.70;3.70;;;25.50;99.90;;;;;;5291653;28;20233;-67
2021/07/10 07:59:29;;;;;;;3.63;3.30;;;25.10;99.90;;;;;;5293070;28;20289;-65
2021/07/10 08:02:04;;;;;;;4.22;3.10;;;25.00;99.90;;;;;;5291557;28;20658;-64
2021/07/10 08:04:36;;;;;;;3.65;2.72;;;24.80;99.90;;;;;;5292532;27;20199;-67
2021/07/10 08:07:08;;;;;;;4.70;3.03;;;24.60;99.90;;;;;;5292293;28;20227;-68
2021/07/10 08:09:40;;;;;;;3.95;3.20;;;24.70;99.90;;;;;;5292494;28;20231;-65
2021/07/10 08:12:12;;;;;;;4.53;3.30;;;24.40;99.90;;;;;;5292314;28;20234;-68
2021/07/10 08:14:44;;;;;;;3.22;2.90;;;24.00;99.90;;;;;;5291040;28;20238;-63
2021/07/10 08:17:16;;;;;;;4.18;3.00;;;23.80;99.90;;;;;;5291045;28;20231;-65
2021/07/10 08:19:49;;;;;;;4.68;3.50;;;23.70;99.90;;;;;;5291019;28;20542;-67
2021/07/10 08:22:21;;;;;;;3.35;3.03;;;23.80;99.90;;;;;;5291090;28;20223;-66
2021/07/10 08:24:53;;;;;;;4.75;2.75;;;23.80;99.90;;;;;;5291011;28;20199;-64
2021/07/10 08:27:25;;;;;;;4.40;3.05;;;23.70;99.90;;;;;;5291068;28;20506;-67
2021/07/10 08:29:57;;;;;;;5.47;3.17;;;23.60;99.90;;;;;;5290759;28;20204;-66
2021/07/10 08:32:29;;;;;;;3.25;2.88;;;23.60;99.90;;;;;;5291422;28;20271;-64
2021/07/10 08:35:05;;;;;;;4.65;3.08;;;23.80;99.90;;;;;;5292025;28;20207;-66
2021/07/10 08:37:39;;;;;;;3.30;2.72;;;23.60;99.90;;;;;;5291670;28;20237;-66
2021/07/10 08:40:12;;;;;;;3.53;2.55;;;23.60;99.90;;;;;;5290369;28;20184;-65
2021/07/10 08:42:50;;;;;;;2.78;2.47;;;23.50;99.90;;;;;;5292082;28;20645;-66
2021/07/10 08:45:22;;;;;;;4.05;2.47;;;23.40;99.90;;;;;;5291114;28;20188;-65
2021/07/10 08:47:55;;;;;;;6.30;2.70;;;23.00;99.90;;;;;;5292019;28;20655;-66
2021/07/10 08:50:28;;;;;;;3.90;2.40;;;22.70;99.90;;;;;;5291261;28;20548;-66
2021/07/10 08:53:03;;;;;;;4.75;2.35;;;22.50;99.90;;;;;;5273264;28;20249;-66
2021/07/10 08:55:36;;;;;;;3.75;2.08;;;22.40;99.90;;;;;;5291248;28;20195;-64
2021/07/10 08:58:08;;;;;;;3.42;2.17;;;22.20;99.90;;;;;;5290937;27;20230;-64
2021/07/10 09:00:41;;;;;;;2.20;2.00;;;22.10;99.90;;;;;;5290655;28;20204;-64
2021/07/10 09:03:13;;;;;;;3.55;2.05;;;22.20;99.90;;;;;;5291091;28;20583;-64
2021/07/10 09:05:46;;;;;;;2.55;1.83;;;22.20;99.90;;;;;;5291504;28;20218;-66
2021/07/10 09:08:28;;;;;;;2.17;1.98;;;22.20;99.90;;;;;;5291474;28;20538;-63
2021/07/10 09:11:06;;;;;;;1.90;1.80;;;22.00;99.90;;;;;;5290047;28;20242;-62
2021/07/10 09:13:42;;;;;;;2.80;2.03;;;22.10;99.90;;;;;;5291402;28;20241;-62
2021/07/10 09:16:26;;;;;;;2.00;1.85;;;22.40;99.90;;;;;;5291706;28;20632;-69
2021/07/10 09:19:04;;;;;;;2.20;1.50;;;22.60;99.90;;;;;;5291630;28;20635;-63
2021/07/10 09:21:50;;;;;;;3.00;1.70;;;22.60;99.90;;;;;;5290603;28;20195;-64
2021/07/10 09:24:33;;;;;;;3.88;1.50;;;22.60;99.90;;;;;;5289468;28;20219;-66
2021/07/10 09:27:09;;;;;;;2.33;1.50;;;22.50;99.90;;;;;;5289344;28;20205;-65
2021/07/10 09:29:48;;;;;;;2.35;1.20;;;22.20;99.90;;;;;;5288946;28;20531;-66
2021/07/10 09:32:22;;;;;;;2.92;1.40;;;22.00;99.90;;;;;;5288340;28;20195;-67
2021/07/10 09:34:57;;;;;;;5.25;1.35;;;22.10;99.90;;;;;;5290586;28;20637;-66
2021/07/10 09:37:32;;;;;;;1.42;1.20;;;22.50;99.90;;;;;;5290884;28;20606;-65
2021/07/10 09:40:12;;;;;;;2.15;1.10;;;22.60;99.90;;;;;;5290815;28;20298;-61
2021/07/10 09:42:48;;;;;;;2.85;1.10;;;22.60;99.90;;;;;;5290585;28;20237;-64
2021/07/10 09:45:24;;;;;;;1.23;0.90;;;22.60;99.90;;;;;;5287314;28;20638;-70
2021/07/10 09:48:11;;;;;;;0.90;0.80;;;22.50;99.90;;;;;;5289723;28;20195;-64
2021/07/10 09:50:43;;;;;;;1.00;0.90;;;22.30;99.90;;;;;;5288815;28;20302;-65
2021/07/10 09:53:27;;;;;;;2.45;1.00;;;22.40;99.90;;;;;;5293358;28;20207;-57
2021/07/10 09:56:10;;;;;;;1.30;1.00;;;22.70;99.90;;;;;;5293698;28;20223;-54
2021/07/10 09:58:42;;;;;;;1.00;0.90;;;22.90;99.90;;;;;;5294923;28;20682;-49
2021/07/10 10:01:48;;;;;;;2.45;0.93;;;22.80;99.90;;;;;;5294562;28;20200;-52
2021/07/10 10:04:24;;;;;;;3.63;0.80;;;23.00;99.90;;;;;;5272189;28;20207;-68
2021/07/10 10:07:00;;;;;;;0.70;0.60;;;23.00;99.90;;;;;;5294944;28;20183;-71
2021/07/10 10:09:35;;;;;;;0.95;0.73;;;23.00;99.90;;;;;;5294769;28;20234;-74
2021/07/10 10:12:14;;;;;;;2.05;0.73;;;23.00;99.90;;;;;;5294762;28;20191;-71
2021/07/10 10:14:56;;;;;;;2.20;0.70;;;23.00;99.90;;;;;;5294905;28;20231;-52
2021/07/10 10:17:31;;;;;;;0.77;0.55;;;23.00;99.90;;;;;;5294965;28;20497;-52
2021/07/10 10:20:04;;;;;;;0.90;0.70;;;23.00;99.90;;;;;;5276114;28;20233;-56
2021/07/10 10:22:36;;;;;;;1.23;0.80;;;22.90;99.90;;;;;;5294462;28;20606;-58
2021/07/10 10:25:10;;;;;;;0.98;0.75;;;22.50;99.90;;;;;;5293775;28;20231;-53
2021/07/10 10:27:49;;;;;;;1.30;0.70;;;22.00;99.90;;;;;;5293200;28;20218;-53
2021/07/10 10:30:24;;;;;;;1.40;0.80;;;21.70;99.90;;;;;;5293949;28;20602;-56
2021/07/10 10:32:56;;;;;;;5.07;0.90;;;21.50;99.90;;;;;;5276181;28;20210;-54
2021/07/10 10:35:31;;;;;;;1.63;1.10;;;21.30;99.90;;;;;;5294369;28;20552;-53
2021/07/10 10:38:04;;;;;;;2.58;0.77;;;21.30;99.90;;;;;;5293788;28;20624;-56
2021/07/10 10:40:37;;;;;;;4.88;1.83;;;21.70;99.90;;;;;;5293159;28;20591;-56
2021/07/10 10:43:13;;;;;;;2.08;0.70;;;22.00;99.90;;;;;;5294144;27;20211;-55
2021/07/10 10:45:46;;;;;;;2.80;0.75;;;22.20;99.90;;;;;;5292871;28;20642;-53
2021/07/10 10:48:36;;;;;;;0.95;0.50;;;22.20;99.90;;;;;;5294085;28;20207;-56
2021/07/10 10:51:34;;;;;;;0.95;0.70;;;22.20;99.90;;;;;;5293722;27;20231;-54
2021/07/10 10:54:18;;;;;;;1.75;0.77;;;22.20;99.90;;;;;;5294013;28;20284;-51
2021/07/10 10:56:51;;;;;;;0.60;0.60;;;22.20;99.90;;;;;;5293772;28;20245;-51
2021/07/10 10:59:38;;;;;;;1.42;0.50;;;22.30;99.90;;;;;;5292705;28;20620;-58
2021/07/10 11:02:48;;;;;;;0.98;0.43;;;22.20;99.90;;;;;;5290744;28;20219;-54
2021/07/10 11:05:35;;;;;;;1.23;0.98;;;22.10;99.90;;;;;;5248877;28;20200;-49
2021/07/10 11:08:21;;;;;;;1.08;0.65;;;22.00;99.90;;;;;;5311539;27;20194;-58
2021/07/10 11:10:53;;;;;;;1.98;0.80;;;21.80;99.90;;;;;;5314255;27;20226;-52
2021/07/10 11:13:41;;;;;;;1.85;0.70;;;21.80;99.90;;;;;;5314638;27;20187;-58
2021/07/10 11:16:19;;;;;;;2.13;0.68;;;21.90;99.90;;;;;;5296237;27;20304;-52
2021/07/10 11:18:54;;;;;;;1.00;0.50;;;21.90;99.90;;;;;;5314446;27;20187;-59
2021/07/10 11:21:35;;;;;;;2.67;0.57;;;22.00;99.90;;;;;;5313526;27;20218;-53
2021/07/10 11:24:19;;;;;;;1.70;0.50;;;21.90;99.90;;;;;;5314714;27;20618;-56
2021/07/10 11:26:56;;;;;;;1.35;0.60;;;21.80;99.90;;;;;;5314213;27;20349;-52
2021/07/10 11:29:35;;;;;;;0.40;0.40;;;21.70;99.90;;;;;;5314566;27;20203;-55
2021/07/10 11:32:14;;;;;;;0.80;0.50;;;21.70;99.90;;;;;;5314322;27;20662;-57
2021/07/10 11:34:51;;;;;;;1.25;0.45;;;21.90;99.90;;;;;;5314679;27;20222;-58
2021/07/10 11:37:26;;;;;;;2.47;0.57;;;22.10;99.90;;;;;;5314078;27;20313;-50
2021/07/10 11:40:00;;;;;;;2.15;0.60;;;22.30;99.90;;;;;;5314502;27;20194;-57
2021/07/10 11:42:42;;;;;;;0.88;0.60;;;22.50;99.90;;;;;;5313166;27;20283;-56
2021/07/10 11:45:27;;;;;;;1.38;0.50;;;22.80;99.90;;;;;;5314068;27;20605;-58
2021/07/10 11:48:21;;;;;;;1.30;0.50;;;23.10;99.90;;;;;;5310296;27;20223;-55
2021/07/10 11:51:05;;;;;;;0.52;0.40;;;23.20;99.90;;;;;;5291590;28;20212;-52
2021/07/10 11:53:38;;;;;;;0.80;0.60;;;23.30;99.90;;;;;;5292724;28;20217;-56
2021/07/10 11:56:10;;;;;;;0.68;0.50;;;23.20;99.90;;;;;;5292278;28;20677;-54
2021/07/10 11:58:42;;;;;;;0.63;0.50;;;23.30;99.90;;;;;;5292539;28;20644;-52
2021/07/10 12:01:14;;;;;;;0.60;0.57;;;23.40;99.90;;;;;;5292985;27;20203;-55
2021/07/10 12:03:46;;;;;;;1.65;0.50;;;23.30;99.90;;;;;;5313266;27;20223;-54
2021/07/10 12:06:21;;;;;;;0.50;0.45;;;23.30;99.90;;;;;;5313494;27;20205;-52
2021/07/10 12:09:04;;;;;;;2.97;0.60;;;23.10;99.90;;;;;;5313139;27;20316;-49
2021/07/10 12:11:36;;;;;;;1.35;0.60;;;23.10;99.90;;;;;;5313107;27;20198;-58
2021/07/10 12:14:09;;;;;;;2.65;0.63;;;22.90;99.90;;;;;;5312133;27;20580;-54
2021/07/10 12:16:42;;;;;;;0.95;0.73;;;22.80;99.90;;;;;;5312411;27;20202;-53
2021/07/10 12:19:17;;;;;;;1.17;0.77;;;23.00;99.90;;;;;;5312329;27;20199;-58
2021/07/10 12:22:05;;;;;;;0.70;0.60;;;23.30;99.90;;;;;;5313577;27;20263;-55
2021/07/10 12:24:37;;;;;;;2.15;0.70;;;23.60;99.90;;;;;;5305972;27;20246;-53
2021/07/10 12:27:14;;;;;;;1.92;0.60;;;23.80;99.90;;;;;;5291369;28;20633;-52
2021/07/10 12:29:53;;;;;;;4.68;0.80;;;23.70;99.90;;;;;;5300977;27;20205;-58
2021/07/10 12:32:25;;;;;;;1.02;0.68;;;23.80;99.90;;;;;;5314074;27;20301;-57
2021/07/10 12:34:59;;;;;;;0.80;0.73;;;23.80;99.90;;;;;;5313372;27;20222;-51
2021/07/10 12:37:31;;;;;;;1.00;0.80;;;23.80;99.90;;;;;;5313159;27;20195;-48
2021/07/10 12:40:10;;;;;;;1.55;0.85;;;23.70;99.90;;;;;;5313412;27;20285;-58
2021/07/10 12:42:41;;;;;;;1.08;0.80;;;23.80;99.90;;;;;;5312873;27;20630;-49
2021/07/10 12:45:13;;;;;;;1.42;0.73;;;23.80;99.90;;;;;;5312010;27;20210;-53
2021/07/10 12:47:45;;;;;;;4.57;1.05;;;23.80;99.90;;;;;;5313146;27;20529;-53
2021/07/10 12:50:22;;;;;;;3.80;0.98;;;23.60;99.90;;;;;;5311566;27;20207;-53
2021/07/10 12:53:05;;;;;;;1.48;1.02;;;23.60;99.90;;;;;;5312586;27;20204;-48
2021/07/10 12:55:49;;;;;;;1.17;0.85;;;23.40;99.90;;;;;;5312716;27;20290;-54
2021/07/10 12:58:21;;;;;;;0.95;0.70;;;23.30;99.90;;;;;;5297667;27;20201;-54
2021/07/10 13:00:53;;;;;;;2.65;0.90;;;23.00;99.90;;;;;;5309970;27;20488;-54
2021/07/10 13:03:26;;;;;;;1.00;0.90;;;22.70;99.90;;;;;;5312392;27;20289;-53
2021/07/10 13:06:02;;;;;;;1.10;1.00;;;22.40;99.90;;;;;;5329007;27;20575;-51
2021/07/10 13:08:35;;;;;;;0.95;0.93;;;22.20;99.90;;;;;;5311276;27;20202;-52
2021/07/10 13:11:07;;;;;;;2.20;1.30;;;22.20;99.90;;;;;;5311118;27;20252;-54
2021/07/10 13:13:41;;;;;;;1.95;0.90;;;22.40;99.90;;;;;;5312375;27;20229;-53
2021/07/10 13:16:16;;;;;;;2.47;1.10;;;22.60;99.90;;;;;;5311116;27;20218;-51